Time;durP1;ratioP1;P1;durP2;ratioP2;P2;SDS_P1;SDS_P2;PMS_P1;PMS_P2;Temp;Humidity;BMP_temperature;BMP_pressure;BME280_temperature;BME280_humidity;BME280_pressure;Samples;Min_cycle;Max_cycle;Signal;HPM_P1;HPM_P2
2023/02/15 00:01:13;;;;;;;10.10;7.43;;;;;;;-3.59;100.00;94127.25;2081027;28;20164;-81
2023/02/15 00:02:15;;;;;;;10.68;7.00;;;;;;;-3.52;100.00;94126.81;2088083;28;20376;-79
2023/02/15 00:03:17;;;;;;;10.35;7.50;;;;;;;-3.53;100.00;94127.13;2076809;28;20747;-80
2023/02/15 00:04:22;;;;;;;11.32;8.35;;;;;;;-3.52;100.00;94123.44;2081650;28;20362;-83
2023/02/15 00:05:24;;;;;;;12.68;8.25;;;;;;;-3.62;100.00;94127.84;2079354;28;20100;-81
2023/02/15 00:06:27;;;;;;;12.25;7.45;;;;;;;-3.57;100.00;94130.31;2088316;28;20123;-79
2023/02/15 00:07:28;;;;;;;11.68;7.80;;;;;;;-3.53;100.00;94125.28;2081345;28;20508;-82
2023/02/15 00:08:29;;;;;;;11.60;8.30;;;;;;;-3.55;100.00;94124.81;2065294;28;20030;-81
2023/02/15 00:09:30;;;;;;;10.60;7.90;;;;;;;-3.57;100.00;94119.88;2071153;28;20463;-82
2023/02/15 00:10:31;;;;;;;9.55;7.68;;;;;;;-3.59;100.00;94124.66;2065093;28;20030;-81
2023/02/15 00:11:51;;;;;;;12.00;8.20;;;;;;;-3.55;100.00;94122.22;2081465;28;20060;-80
2023/02/15 00:12:52;;;;;;;16.10;9.10;;;;;;;-3.50;100.00;94123.91;2094340;28;20040;-80
2023/02/15 00:13:53;;;;;;;11.10;8.20;;;;;;;-3.49;100.00;94115.00;2081261;28;20021;-81
2023/02/15 00:14:54;;;;;;;10.75;8.23;;;;;;;-3.50;100.00;94119.47;2073369;28;20021;-80
2023/02/15 00:16:01;;;;;;;12.98;8.48;;;;;;;-3.55;100.00;94112.53;2073717;28;20843;-84
2023/02/15 00:17:02;;;;;;;10.77;7.82;;;;;;;-3.54;100.00;94110.69;2077987;28;20045;-85
2023/02/15 00:18:03;;;;;;;12.10;8.20;;;;;;;-3.57;100.00;94125.09;2065438;28;20094;-80
2023/02/15 00:19:04;;;;;;;9.88;7.40;;;;;;;-3.61;100.00;94120.78;2068883;28;20032;-82
2023/02/15 00:20:06;;;;;;;13.45;7.85;;;;;;;-3.64;100.00;94114.34;2084264;28;20029;-82
2023/02/15 00:21:09;;;;;;;11.07;7.60;;;;;;;-3.58;100.00;94107.88;2077071;28;20037;-81
2023/02/15 00:22:10;;;;;;;8.93;6.50;;;;;;;-3.59;100.00;94113.44;2073362;28;20391;-81
2023/02/15 00:23:11;;;;;;;11.38;7.45;;;;;;;-3.62;100.00;94114.78;2071437;28;20030;-82
2023/02/15 00:24:15;;;;;;;10.20;7.47;;;;;;;-3.58;100.00;94112.34;2073562;28;20542;-80
2023/02/15 00:25:16;;;;;;;10.77;6.93;;;;;;;-3.58;100.00;94114.97;2074881;28;20033;-82
2023/02/15 00:26:18;;;;;;;10.18;7.40;;;;;;;-3.68;100.00;94112.63;2069877;28;20069;-81
2023/02/15 00:27:19;;;;;;;8.80;6.90;;;;;;;-3.68;100.00;94118.63;2069314;28;20018;-82
2023/02/15 00:28:20;;;;;;;9.90;7.20;;;;;;;-3.75;100.00;94115.66;2075221;28;20017;-82
2023/02/15 00:29:21;;;;;;;9.63;6.78;;;;;;;-3.67;100.00;94108.94;2077123;28;20033;-81
2023/02/15 00:30:22;;;;;;;8.65;6.88;;;;;;;-3.71;100.00;94113.22;2074996;28;20056;-82
2023/02/15 00:31:23;;;;;;;9.50;6.60;;;;;;;-3.64;100.00;94118.78;2078797;28;20045;-81
2023/02/15 00:32:24;;;;;;;9.07;6.40;;;;;;;-3.67;100.00;94112.31;2078431;28;20033;-81
2023/02/15 00:33:25;;;;;;;10.85;6.50;;;;;;;-3.64;100.00;94111.72;2077162;28;20054;-83
2023/02/15 00:34:27;;;;;;;10.15;6.90;;;;;;;-3.65;100.00;94112.00;2065261;28;20026;-81
2023/02/15 00:35:28;;;;;;;9.50;6.72;;;;;;;-3.65;100.00;94112.78;2065058;28;20111;-81
2023/02/15 00:36:29;;;;;;;11.60;6.70;;;;;;;-3.66;100.00;94108.63;2066699;28;20072;-80
2023/02/15 00:37:30;;;;;;;13.32;6.85;;;;;;;-3.69;100.00;94108.44;2067848;28;20426;-82
2023/02/15 00:38:32;;;;;;;8.57;6.38;;;;;;;-3.72;100.00;94106.47;2074895;28;20053;-80
2023/02/15 00:39:33;;;;;;;9.43;6.40;;;;;;;-3.66;100.00;94105.25;2079088;28;21219;-82
2023/02/15 00:40:34;;;;;;;9.15;6.88;;;;;;;-3.65;100.00;94115.38;2078208;28;20026;-81
2023/02/15 00:41:35;;;;;;;7.82;5.90;;;;;;;-3.63;100.00;94110.66;2074808;28;20033;-80
2023/02/15 00:42:37;;;;;;;8.38;6.80;;;;;;;-3.65;100.00;94107.53;2082890;28;20025;-83
2023/02/15 00:43:38;;;;;;;10.63;6.70;;;;;;;-3.66;100.00;94111.25;2083238;28;20493;-83
2023/02/15 00:44:40;;;;;;;9.32;6.80;;;;;;;-3.66;100.00;94113.84;2075770;28;20384;-81
2023/02/15 00:45:42;;;;;;;11.68;6.80;;;;;;;-3.68;100.00;94105.56;2066955;28;20050;-82
2023/02/15 00:46:43;;;;;;;10.38;6.63;;;;;;;-3.81;100.00;94101.19;2066647;28;20029;-80
2023/02/15 00:47:44;;;;;;;7.90;6.53;;;;;;;-3.82;100.00;94110.88;2077234;28;20017;-81
2023/02/15 00:48:45;;;;;;;9.20;6.40;;;;;;;-3.78;100.00;94107.66;2069135;28;20380;-82
2023/02/15 00:49:46;;;;;;;10.90;6.78;;;;;;;-3.81;100.00;94099.34;2073344;28;20020;-82
2023/02/15 00:50:52;;;;;;;12.07;6.95;;;;;;;-3.80;100.00;94107.97;2082780;28;20029;-82
2023/02/15 00:51:54;;;;;;;9.27;6.20;;;;;;;-3.76;100.00;94108.91;2079893;28;20108;-84
2023/02/15 00:52:55;;;;;;;8.38;6.00;;;;;;;-3.74;100.00;94100.75;2073406;28;20018;-81
2023/02/15 00:53:56;;;;;;;9.63;6.32;;;;;;;-3.77;100.00;94111.81;2074052;28;20498;-80
2023/02/15 00:54:57;;;;;;;7.43;5.93;;;;;;;-3.82;100.00;94104.84;2065818;28;20023;-82
2023/02/15 00:55:59;;;;;;;10.02;6.53;;;;;;;-3.83;100.00;94104.09;2066257;28;20036;-80
2023/02/15 00:57:01;;;;;;;8.45;6.25;;;;;;;-3.84;100.00;94110.38;2075091;28;20025;-81
2023/02/15 00:58:02;;;;;;;8.63;6.28;;;;;;;-3.93;100.00;94106.97;2069425;28;20034;-80
2023/02/15 00:59:03;;;;;;;8.30;6.28;;;;;;;-3.93;100.00;94106.97;2082575;28;20032;-79
2023/02/15 01:00:05;;;;;;;7.55;6.18;;;;;;;-3.91;100.00;94104.81;2090731;28;20094;-83
2023/02/15 01:01:12;;;;;;;6.85;6.13;;;;;;;-3.91;100.00;94107.44;2066135;28;20026;-82
2023/02/15 01:02:13;;;;;;;8.45;6.22;;;;;;;-3.92;100.00;94105.91;2067522;28;20073;-81
2023/02/15 01:03:16;;;;;;;6.85;5.93;;;;;;;-3.91;100.00;94104.81;2073627;28;20026;-83
2023/02/15 01:04:17;;;;;;;8.07;6.15;;;;;;;-4.09;100.00;94103.97;2081807;28;20029;-82
2023/02/15 01:05:18;;;;;;;9.75;5.57;;;;;;;-4.02;100.00;94098.31;2081789;28;20686;-82
2023/02/15 01:06:20;;;;;;;9.68;5.85;;;;;;;-3.96;100.00;94096.34;2073867;28;20022;-81
2023/02/15 01:07:20;;;;;;;9.82;5.88;;;;;;;-4.06;100.00;94100.75;2068156;28;20585;-82
2023/02/15 01:08:22;;;;;;;9.77;5.80;;;;;;;-4.03;100.00;94096.03;2073829;28;20029;-80
2023/02/15 01:09:24;;;;;;;8.95;5.75;;;;;;;-3.97;100.00;94100.03;2070577;28;20057;-80
2023/02/15 01:10:25;;;;;;;8.85;6.35;;;;;;;-4.02;100.00;94098.31;2076288;28;20506;-82
2023/02/15 01:11:26;;;;;;;8.55;5.65;;;;;;;-4.06;100.00;94085.09;2075173;28;20473;-82
2023/02/15 01:12:36;;;;;;;9.07;6.80;;;;;;;-3.98;100.00;94093.28;2074238;28;20026;-81
2023/02/15 01:13:39;;;;;;;;;;;;;;;-4.00;100.00;94095.41;2080810;28;20112;-81
2023/02/15 01:14:40;;;;;;;8.73;5.22;;;;;;;-4.00;100.00;94095.41;2073596;28;20394;-82
2023/02/15 01:15:42;;;;;;;7.82;6.40;;;;;;;-3.98;100.00;94093.28;2071433;28;20060;-80
2023/02/15 01:16:43;;;;;;;7.28;5.65;;;;;;;-4.04;100.00;94087.41;2071868;28;20110;-82
2023/02/15 01:17:49;;;;;;;7.97;5.57;;;;;;;-4.07;100.00;94088.00;2085539;28;20549;-80
2023/02/15 01:18:50;;;;;;;8.40;6.03;;;;;;;-4.09;100.00;94084.91;2074425;28;20030;-81
2023/02/15 01:19:51;;;;;;;7.78;6.03;;;;;;;-4.00;100.00;94095.41;2064909;28;20026;-82
2023/02/15 01:20:53;;;;;;;7.97;5.65;;;;;;;-4.00;100.00;94088.34;2069398;28;20018;-82
2023/02/15 01:21:54;;;;;;;8.15;5.70;;;;;;;-4.01;100.00;94091.25;2081111;28;20018;-81
2023/02/15 01:22:56;;;;;;;8.35;5.72;;;;;;;-4.02;100.00;94084.50;2073784;28;20379;-82
2023/02/15 01:23:59;;;;;;;6.72;5.25;;;;;;;-4.04;100.00;94090.00;2070152;28;20025;-82
2023/02/15 01:25:00;;;;;;;7.10;5.30;;;;;;;-4.02;100.00;94092.34;2062648;28;20101;-80
2023/02/15 01:26:02;;;;;;;7.53;5.47;;;;;;;-4.01;100.00;94092.03;2064039;28;20022;-81
2023/02/15 01:27:03;;;;;;;8.27;6.05;;;;;;;-4.02;100.00;94092.34;2071240;28;20078;-81
2023/02/15 01:28:04;;;;;;;9.60;6.05;;;;;;;-4.06;100.00;94087.72;2072901;28;20146;-83
2023/02/15 01:29:05;;;;;;;8.25;5.57;;;;;;;-4.06;100.00;94084.31;2061822;28;20586;-80
2023/02/15 01:30:07;;;;;;;7.32;5.43;;;;;;;-4.04;100.00;94092.63;2073448;28;20014;-83
2023/02/15 01:31:11;;;;;;;7.72;5.68;;;;;;;-4.03;100.00;94088.19;2086079;28;20033;-82
2023/02/15 01:32:13;;;;;;;9.77;6.20;;;;;;;-4.01;100.00;94086.81;2079498;28;20067;-82
2023/02/15 01:33:17;;;;;;;9.50;6.32;;;;;;;-3.99;100.00;94089.91;2064005;28;20141;-82
2023/02/15 01:34:18;;;;;;;8.35;5.97;;;;;;;-3.98;100.00;94093.28;2073453;28;20025;-83
2023/02/15 01:35:19;;;;;;;7.63;5.80;;;;;;;-3.99;100.00;94086.53;2073178;28;20455;-81
2023/02/15 01:36:20;;;;;;;9.55;5.57;;;;;;;-4.00;100.00;94085.72;2077560;28;20032;-81
2023/02/15 01:37:21;;;;;;;8.55;5.63;;;;;;;-3.99;100.00;94089.13;2075485;28;20033;-83
2023/02/15 01:38:22;;;;;;;8.55;5.75;;;;;;;-4.00;100.00;94080.50;2073128;28;20021;-81
2023/02/15 01:39:23;;;;;;;8.88;5.63;;;;;;;-4.07;100.00;94082.78;2074982;28;20018;-81
2023/02/15 01:40:26;;;;;;;9.75;6.10;;;;;;;-4.09;100.00;94079.69;2083199;28;20021;-82
2023/02/15 01:41:27;;;;;;;8.18;5.60;;;;;;;-4.06;100.00;94077.25;2088984;28;20464;-82
2023/02/15 01:42:29;;;;;;;10.05;6.07;;;;;;;-4.04;100.00;94084.78;2087189;28;20025;-80
2023/02/15 01:43:50;;;;;;;8.93;5.65;;;;;;;-4.09;100.00;94082.31;2070468;28;20120;-83
2023/02/15 01:45:00;;;;;;;6.57;5.22;;;;;;;-4.08;100.00;94084.63;2075872;28;20026;-83
2023/02/15 01:46:02;;;;;;;7.00;5.07;;;;;;;-4.05;100.00;94081.41;2074634;28;20036;-80
2023/02/15 01:47:03;;;;;;;9.10;5.95;;;;;;;-4.03;100.00;94085.59;2086853;28;20056;-81
2023/02/15 01:48:27;;;;;;;8.00;5.97;;;;;;;-4.12;100.00;94081.09;2090639;28;20025;-82
2023/02/15 01:49:28;;;;;;;6.80;4.95;;;;;;;-4.12;100.00;94077.69;2088376;28;20052;-79
2023/02/15 01:50:34;;;;;;;9.38;5.38;;;;;;;-4.18;100.00;94077.03;2082551;28;20017;-80
2023/02/15 01:51:37;;;;;;;6.95;5.20;;;;;;;-4.25;100.00;94081.94;2090447;28;20121;-80
2023/02/15 01:52:49;;;;;;;8.13;5.35;;;;;;;-4.26;100.00;94075.16;2084610;28;20025;-82
2023/02/15 01:53:55;;;;;;;9.85;5.15;;;;;;;-4.21;100.00;94079.50;2078143;28;20501;-83
2023/02/15 01:54:57;;;;;;;8.07;5.35;;;;;;;-4.21;100.00;94077.66;2084400;28;20041;-81
2023/02/15 01:56:03;;;;;;;6.30;5.13;;;;;;;-4.24;100.00;94077.47;2099133;28;20103;-82
2023/02/15 01:57:17;;;;;;;6.03;5.03;;;;;;;-4.26;100.00;94074.38;2090728;28;20055;-84
2023/02/15 01:58:21;;;;;;;8.00;4.85;;;;;;;-4.26;100.00;94067.31;2093351;28;20705;-82
2023/02/15 01:59:24;;;;;;;7.63;5.55;;;;;;;-4.26;100.00;94077.00;2087977;28;20024;-81
2023/02/15 02:00:26;;;;;;;6.85;4.72;;;;;;;-4.32;100.00;94064.06;2075105;28;20466;-83
2023/02/15 02:01:27;;;;;;;6.78;4.50;;;;;;;-4.26;100.00;94067.31;2075003;28;20070;-81
2023/02/15 02:02:30;;;;;;;5.05;4.10;;;;;;;-4.26;100.00;94063.94;2080802;28;20053;-83
2023/02/15 02:03:44;;;;;;;7.00;4.90;;;;;;;-4.25;100.00;94063.66;2095213;28;20017;-82
2023/02/15 02:04:52;;;;;;;6.68;4.68;;;;;;;-4.33;100.00;94066.97;2094146;28;20048;-81
2023/02/15 02:05:53;;;;;;;7.50;4.70;;;;;;;-4.25;100.00;94063.66;2083659;28;20413;-82
2023/02/15 02:06:57;;;;;;;6.68;4.65;;;;;;;-4.26;100.00;94062.09;2082236;28;20025;-82
2023/02/15 02:08:01;;;;;;;5.53;4.82;;;;;;;-4.37;100.00;94063.44;2073244;28;20022;-81
2023/02/15 02:09:02;;;;;;;6.28;4.60;;;;;;;-4.32;100.00;94060.69;2074933;28;20100;-82
2023/02/15 02:10:09;;;;;;;6.40;4.63;;;;;;;-4.28;100.00;94061.63;2081976;28;20027;-81
2023/02/15 02:11:15;;;;;;;7.03;4.53;;;;;;;-4.24;100.00;94054.75;2080622;28;20029;-80
2023/02/15 02:12:18;;;;;;;6.00;4.55;;;;;;;-4.21;100.00;94062.00;2080923;28;20040;-83
2023/02/15 02:13:19;;;;;;;6.40;4.65;;;;;;;-4.22;100.00;94051.84;2081553;28;20026;-81
2023/02/15 02:14:22;;;;;;;6.35;4.43;;;;;;;-4.25;100.00;94057.66;2070525;28;20028;-80
2023/02/15 02:15:43;;;;;;;7.47;4.45;;;;;;;-4.28;100.00;94053.03;2076072;28;20379;-81
2023/02/15 02:17:24;;;;;;;6.50;4.35;;;;;;;-4.25;100.00;94053.22;2086218;28;20024;-81
2023/02/15 02:19:11;;;;;;;7.03;4.75;;;;;;;-4.15;100.00;94055.56;2092698;28;20146;-80
2023/02/15 02:20:28;;;;;;;7.38;4.15;;;;;;;-4.21;100.00;94054.16;2085671;28;20438;-82
2023/02/15 02:21:29;;;;;;;7.30;4.47;;;;;;;-4.22;100.00;94051.84;2082303;28;20095;-83
2023/02/15 02:22:53;;;;;;;4.65;4.07;;;;;;;-4.21;100.00;94048.94;2077487;28;20021;-82
2023/02/15 02:24:07;;;;;;;5.57;4.20;;;;;;;-4.18;100.00;94058.75;2077741;28;20567;-84
2023/02/15 02:25:25;;;;;;;5.63;4.10;;;;;;;-4.20;100.00;94058.31;2082985;28;20029;-82
2023/02/15 02:26:44;;;;;;;5.20;4.18;;;;;;;-4.18;100.00;94053.53;2087339;28;20068;-84
2023/02/15 02:28:25;;;;;;;7.20;4.82;;;;;;;-4.18;100.00;94052.78;2085290;28;20033;-81
2023/02/15 02:29:44;;;;;;;7.45;4.63;;;;;;;-4.15;100.00;94060.78;2088488;28;20481;-81
2023/02/15 02:31:03;;;;;;;5.00;4.05;;;;;;;-4.17;100.00;94057.72;2084070;28;20026;-83
2023/02/15 02:32:22;;;;;;;5.70;4.60;;;;;;;-4.17;100.00;94055.09;2083630;28;20018;-80
2023/02/15 02:33:26;;;;;;;4.85;3.75;;;;;;;-4.24;100.00;94059.97;2078658;28;20026;-81
2023/02/15 02:34:45;;;;;;;7.05;4.53;;;;;;;-4.20;100.00;94054.94;2076103;28;20036;-81
2023/02/15 02:35:54;;;;;;;7.03;4.53;;;;;;;-4.31;100.00;94054.41;2086060;28;20076;-80
2023/02/15 02:37:13;;;;;;;5.70;4.43;;;;;;;-4.26;100.00;94056.88;2086034;28;20047;-81
2023/02/15 02:38:25;;;;;;;7.28;4.53;;;;;;;-4.29;100.00;94059.34;2079719;28;20030;-80
2023/02/15 02:39:44;;;;;;;7.80;4.88;;;;;;;-4.31;100.00;94055.16;2080530;28;20033;-84
2023/02/15 02:40:49;;;;;;;7.07;5.15;;;;;;;-4.34;100.00;94060.22;2075742;28;20478;-84
2023/02/15 02:42:09;;;;;;;6.57;4.25;;;;;;;-4.33;100.00;94061.78;2082440;28;20112;-83
2023/02/15 02:43:13;;;;;;;;;;;;;;;-4.30;100.00;94053.34;2082221;28;20454;-83
2023/02/15 02:44:25;;;;;;;5.45;3.95;;;;;;;-4.32;100.00;94061.47;2082185;28;19959;-81
2023/02/15 02:46:05;;;;;;;6.93;4.60;;;;;;;-4.35;100.00;94059.44;2076432;28;20013;-82
2023/02/15 02:47:14;;;;;;;4.78;3.95;;;;;;;-4.28;100.00;94053.81;2081059;28;20113;-81
2023/02/15 02:48:20;;;;;;;6.32;4.35;;;;;;;-4.36;100.00;94057.13;2080667;28;20449;-82
2023/02/15 02:49:42;;;;;;;5.43;4.28;;;;;;;-4.42;100.00;94048.66;2073698;28;20033;-81
2023/02/15 02:50:43;;;;;;;4.85;3.72;;;;;;;-4.39;100.00;94053.31;2090310;28;20016;-82
2023/02/15 02:51:44;;;;;;;5.22;4.15;;;;;;;-4.35;100.00;94056.06;2087225;28;20029;-81
2023/02/15 02:52:49;;;;;;;5.43;4.15;;;;;;;-4.41;100.00;94049.44;2073188;28;20104;-84
2023/02/15 02:53:56;;;;;;;5.03;4.10;;;;;;;-4.38;100.00;94049.63;2065602;28;20026;-81
2023/02/15 02:54:59;;;;;;;6.35;4.20;;;;;;;-4.38;100.00;94048.84;2067883;28;20037;-81
2023/02/15 02:56:11;;;;;;;7.50;4.10;;;;;;;-4.48;100.00;94046.47;2073084;28;20074;-81
2023/02/15 02:57:12;;;;;;;4.97;4.00;;;;;;;-4.52;100.00;94043.72;2068963;28;20090;-83
2023/02/15 02:58:34;;;;;;;6.22;4.25;;;;;;;-4.46;100.00;94052.16;2066372;28;20070;-80
2023/02/15 02:59:45;;;;;;;5.63;4.25;;;;;;;-4.45;100.00;94051.09;2079070;28;20032;-80
2023/02/15 03:01:12;;;;;;;5.00;3.95;;;;;;;-4.44;100.00;94044.81;2082721;28;20409;-82
2023/02/15 03:02:18;;;;;;;5.13;3.63;;;;;;;-4.39;100.00;94044.69;2083533;28;20017;-83
2023/02/15 03:03:38;;;;;;;5.47;4.03;;;;;;;-4.42;100.00;94042.69;2073032;28;20026;-82
2023/02/15 03:04:45;;;;;;;5.20;3.95;;;;;;;-4.47;100.00;94048.81;2075697;28;20072;-82
2023/02/15 03:05:50;;;;;;;3.90;3.17;;;;;;;-4.46;100.00;94042.50;2076878;28;20089;-82
2023/02/15 03:07:21;;;;;;;3.92;3.45;;;;;;;-4.45;100.00;94044.03;2085268;28;20760;-83
2023/02/15 03:08:27;;;;;;;4.72;3.38;;;;;;;-4.54;100.00;94051.03;2093022;28;20021;-84
2023/02/15 03:09:41;;;;;;;4.05;3.63;;;;;;;-4.60;100.00;94057.47;2081240;28;20077;-82
2023/02/15 03:10:42;;;;;;;4.78;4.18;;;;;;;-4.53;100.00;94057.78;2082861;28;20064;-83
2023/02/15 03:11:45;;;;;;;5.88;3.88;;;;;;;-4.54;100.00;94051.03;2081709;28;20048;-83
2023/02/15 03:12:48;;;;;;;5.43;4.30;;;;;;;-4.53;100.00;94049.97;2074062;28;20026;-81
2023/02/15 03:13:50;;;;;;;6.72;4.50;;;;;;;-4.49;100.00;94047.53;2081631;28;20096;-81
2023/02/15 03:15:04;;;;;;;4.93;3.80;;;;;;;-4.55;100.00;94046.91;2081445;28;20022;-83
2023/02/15 03:17:31;;;;;;;4.63;3.70;;;;;;;-4.49;100.00;94052.75;2087950;28;20055;-81
2023/02/15 03:18:38;;;;;;;5.60;3.92;;;;;;;-4.55;100.00;94049.50;2076091;28;20025;-80
2023/02/15 03:19:40;;;;;;;4.70;3.70;;;;;;;-4.52;100.00;94054.13;2077785;28;20155;-81
2023/02/15 03:20:44;;;;;;;3.90;3.22;;;;;;;-4.54;100.00;94055.50;2068759;28;20022;-81
2023/02/15 03:22:09;;;;;;;4.95;3.70;;;;;;;-4.54;100.00;94058.09;2071116;28;20025;-81
2023/02/15 03:23:16;;;;;;;5.20;3.70;;;;;;;-4.57;100.00;94052.41;2083921;28;20082;-84
2023/02/15 03:24:23;;;;;;;5.28;4.10;;;;;;;-4.56;100.00;94051.34;2082719;28;20520;-82
2023/02/15 03:25:42;;;;;;;4.70;3.33;;;;;;;-4.52;100.00;94048.94;2080567;28;20506;-82
2023/02/15 03:26:47;;;;;;;3.83;3.42;;;;;;;-4.51;100.00;94047.09;2076310;28;20434;-82
2023/02/15 03:28:14;;;;;;;4.45;3.65;;;;;;;-4.51;100.00;94042.63;2075593;28;20561;-81
2023/02/15 03:29:17;;;;;;;5.07;3.47;;;;;;;-4.56;100.00;94045.38;2089696;28;20032;-81
2023/02/15 03:30:21;;;;;;;6.97;3.65;;;;;;;-4.54;100.00;94042.44;2084869;28;20033;-82
2023/02/15 03:31:30;;;;;;;4.53;3.03;;;;;;;-4.52;100.00;94043.72;2074052;28;20034;-80
2023/02/15 03:32:33;;;;;;;5.20;3.20;;;;;;;-4.49;100.00;94040.47;2075111;28;20022;-82
2023/02/15 03:33:39;;;;;;;4.35;3.03;;;;;;;-4.53;100.00;94043.97;2072970;28;20045;-82
2023/02/15 03:34:42;;;;;;;3.67;2.95;;;;;;;-4.55;100.00;94041.69;2075868;28;20063;-82
2023/02/15 03:36:28;;;;;;;3.90;3.05;;;;;;;-4.63;100.00;94037.94;2079797;28;20025;-82
2023/02/15 03:37:37;;;;;;;9.52;3.60;;;;;;;-4.52;100.00;94042.91;2058982;28;20045;-83
2023/02/15 03:38:49;;;;;;;4.15;3.30;;;;;;;-4.52;100.00;94041.09;2077869;28;20021;-83
2023/02/15 03:41:47;;;;;;;3.40;3.00;;;;;;;-4.57;100.00;94039.34;2085827;28;20017;-80
2023/02/15 03:42:56;;;;;;;2.83;2.45;;;;;;;-4.61;100.00;94045.47;2082547;28;20033;-83
2023/02/15 03:44:13;;;;;;;4.85;3.13;;;;;;;-4.62;100.00;94033.50;2085214;28;20040;-80
2023/02/15 03:45:24;;;;;;;2.83;2.53;;;;;;;-4.60;100.00;94036.59;2084345;28;20029;-81
2023/02/15 03:46:41;;;;;;;5.07;3.00;;;;;;;-4.61;100.00;94038.44;2072868;28;20486;-83
2023/02/15 03:47:46;;;;;;;6.32;2.90;;;;;;;-4.65;100.00;94040.09;2065240;28;20066;-82
2023/02/15 03:49:00;;;;;;;3.45;2.95;;;;;;;-4.65;100.00;94044.53;2066853;28;20685;-84
2023/02/15 03:51:37;;;;;;;3.33;2.58;;;;;;;-4.66;100.00;94038.53;2081910;28;20111;-83
2023/02/15 03:52:39;;;;;;;4.47;3.30;;;;;;;-4.67;100.00;94039.59;2082858;28;20394;-82
2023/02/15 03:53:42;;;;;;;4.20;3.17;;;;;;;-4.66;100.00;94040.38;2076210;28;20026;-83
2023/02/15 03:54:47;;;;;;;4.35;3.10;;;;;;;-4.65;100.00;94034.13;2083881;28;20350;-82
2023/02/15 03:55:54;;;;;;;4.88;3.00;;;;;;;-4.67;100.00;94042.22;2084411;28;20063;-83
2023/02/15 04:03:15;;;;;;;5.32;2.88;;;;;;;-4.73;100.00;94048.63;2096841;28;20024;-82
2023/02/15 04:04:20;;;;;;;3.22;2.75;;;;;;;-4.73;100.00;94048.63;2082217;28;20036;-84
2023/02/15 04:05:22;;;;;;;3.08;2.60;;;;;;;-4.61;100.00;94055.91;2069704;28;20757;-83
2023/02/15 04:06:23;;;;;;;4.20;3.00;;;;;;;-4.40;100.00;94043.91;2074498;28;20056;-82
2023/02/15 04:07:24;;;;;;;4.00;2.67;;;;;;;-4.42;100.00;94043.44;2086921;28;20024;-80
2023/02/15 04:10:51;;;;;;;3.70;2.45;;;;;;;-4.49;100.00;94045.69;2072307;28;20021;-83
2023/02/15 04:11:06;;;;;;;3.15;2.67;;;;;;;-4.64;100.00;94038.25;2088716;28;20048;-80
2023/02/15 04:12:07;;;;;;;4.28;2.80;;;;;;;-4.73;100.00;94043.41;2085107;28;20043;-82
2023/02/15 04:13:08;;;;;;;3.55;2.85;;;;;;;-4.75;100.00;94044.75;2082903;28;20025;-82
2023/02/15 04:16:49;;;;;;;3.97;3.03;;;;;;;-4.72;100.00;94049.38;2079950;28;20088;-80
2023/02/15 04:17:50;;;;;;;4.03;3.10;;;;;;;-4.76;100.00;94041.38;2073721;28;20030;-84
2023/02/15 04:25:38;;;;;;;3.80;3.10;;;;;;;-4.96;100.00;94047.06;2088497;28;20020;-81
2023/02/15 04:26:40;;;;;;;3.42;2.92;;;;;;;-4.97;100.00;94048.13;2084733;28;20563;-80
2023/02/15 04:27:51;;;;;;;4.38;2.85;;;;;;;-4.91;100.00;94044.34;2089804;28;20044;-80
2023/02/15 04:28:52;;;;;;;4.53;2.70;;;;;;;-4.89;100.00;94055.25;2089981;28;20063;-80
2023/02/15 04:29:53;;;;;;;4.10;2.90;;;;;;;-4.87;100.00;94045.31;2086663;28;20040;-81
2023/02/15 04:30:54;;;;;;;3.58;2.80;;;;;;;-4.87;100.00;94043.47;2092711;28;20060;-83
2023/02/15 04:32:00;;;;;;;3.00;2.70;;;;;;;-4.85;100.00;94043.16;2075911;28;20021;-80
2023/02/15 04:33:02;;;;;;;3.95;2.70;;;;;;;-4.85;100.00;94043.94;2079126;28;20473;-81
2023/02/15 04:34:03;;;;;;;2.85;2.63;;;;;;;-4.87;100.00;94053.91;2083097;28;20029;-82
2023/02/15 04:35:06;;;;;;;4.03;3.00;;;;;;;-4.89;100.00;94042.97;2076261;28;20049;-82
2023/02/15 04:36:06;;;;;;;5.85;3.10;;;;;;;-4.90;100.00;94044.06;2080723;28;20029;-79
2023/02/15 04:37:07;;;;;;;4.30;2.90;;;;;;;-4.90;100.00;94046.66;2079171;28;20466;-81
2023/02/15 04:38:09;;;;;;;4.15;2.70;;;;;;;-4.93;100.00;94042.03;2074430;28;20037;-83
2023/02/15 04:39:15;;;;;;;3.55;2.80;;;;;;;-4.93;100.00;94039.41;2074139;28;20036;-82
2023/02/15 04:40:17;;;;;;;4.45;2.70;;;;;;;-4.94;100.00;94039.72;2066858;28;20477;-82
2023/02/15 04:41:18;;;;;;;4.50;2.88;;;;;;;-4.93;100.00;94038.66;2070377;28;20541;-81
2023/02/15 04:42:21;;;;;;;2.90;2.60;;;;;;;-4.92;100.00;94048.78;2072873;28;20033;-82
2023/02/15 04:43:22;;;;;;;3.65;2.85;;;;;;;-4.90;100.00;94038.84;2075485;28;20037;-83
2023/02/15 04:44:23;;;;;;;5.70;2.80;;;;;;;-4.89;100.00;94039.59;2079751;28;20026;-79
2023/02/15 04:45:24;;;;;;;3.13;2.70;;;;;;;-4.87;100.00;94045.31;2081156;28;20029;-84
2023/02/15 04:46:25;;;;;;;4.05;2.80;;;;;;;-4.88;100.00;94041.91;2081955;28;20041;-81
2023/02/15 04:47:26;;;;;;;3.85;2.63;;;;;;;-4.85;100.00;94037.94;2090370;28;20087;-81
2023/02/15 04:48:27;;;;;;;4.40;2.95;;;;;;;-4.91;100.00;94037.31;2090105;28;20099;-82
2023/02/15 04:49:28;;;;;;;4.03;3.00;;;;;;;-4.94;100.00;94043.09;2081738;28;20041;-81
2023/02/15 04:50:30;;;;;;;4.53;3.05;;;;;;;-4.92;100.00;94040.19;2082019;28;20036;-81
2023/02/15 04:51:32;;;;;;;3.45;2.65;;;;;;;-4.97;100.00;94038.47;2086552;28;20029;-82
2023/02/15 04:52:33;;;;;;;2.70;2.50;;;;;;;-4.96;100.00;94034.81;2082170;28;20041;-83
2023/02/15 04:53:35;;;;;;;3.80;3.08;;;;;;;-4.95;100.00;94035.59;2089907;28;20025;-82
2023/02/15 04:54:37;;;;;;;3.60;2.50;;;;;;;-4.95;100.00;94041.56;2090107;28;20032;-82
2023/02/15 04:55:38;;;;;;;3.25;2.50;;;;;;;-4.91;100.00;94041.75;2081644;28;20029;-82
2023/02/15 04:56:40;;;;;;;3.42;2.63;;;;;;;-4.94;100.00;94043.09;2085816;28;20072;-81
2023/02/15 04:57:40;;;;;;;3.40;2.80;;;;;;;-5.00;100.00;94038.28;2083752;28;20053;-82
2023/02/15 04:58:42;;;;;;;4.80;2.95;;;;;;;-4.94;100.00;94034.50;2077164;28;20466;-83
2023/02/15 04:59:44;;;;;;;4.45;3.13;;;;;;;-4.96;100.00;94034.81;2073877;28;20030;-82
2023/02/15 05:00:45;;;;;;;2.80;2.53;;;;;;;-4.90;100.00;94036.22;2070956;28;20083;-83
2023/02/15 05:01:57;;;;;;;3.83;2.78;;;;;;;-4.90;100.00;94036.22;2084481;28;20025;-82
2023/02/15 05:02:58;;;;;;;5.22;3.20;;;;;;;-5.03;100.00;94037.03;2085760;28;20028;-81
2023/02/15 05:04:00;;;;;;;4.88;2.90;;;;;;;-4.95;100.00;94032.97;2081992;28;20029;-84
2023/02/15 05:05:01;;;;;;;4.03;3.22;;;;;;;-5.02;100.00;94025.56;2081772;28;20029;-82
2023/02/15 05:06:04;;;;;;;4.72;2.83;;;;;;;-5.09;100.00;94028.56;2073769;28;20321;-82
2023/02/15 05:07:05;;;;;;;4.25;3.08;;;;;;;-5.01;100.00;94037.50;2073388;28;20550;-81
2023/02/15 05:08:06;;;;;;;3.78;2.92;;;;;;;-4.99;100.00;94032.03;2067146;28;20037;-82
2023/02/15 05:09:08;;;;;;;3.03;2.67;;;;;;;-5.06;100.00;94030.56;2075168;28;20025;-82
2023/02/15 05:10:09;;;;;;;3.47;2.95;;;;;;;-5.13;100.00;94035.44;2073538;28;20509;-82
2023/02/15 05:11:11;;;;;;;5.43;3.10;;;;;;;-5.15;100.00;94031.56;2074849;28;20631;-83
2023/02/15 05:12:13;;;;;;;3.67;3.30;;;;;;;-5.15;100.00;94028.97;2088701;28;20044;-81
2023/02/15 05:13:15;;;;;;;3.67;2.90;;;;;;;-5.17;100.00;94034.50;2082082;28;20051;-81
2023/02/15 05:14:17;;;;;;;3.75;3.33;;;;;;;-5.17;100.00;94029.28;2090147;28;20053;-80
2023/02/15 05:15:19;;;;;;;9.05;4.85;;;;;;;-5.16;100.00;94027.44;2089914;28;20119;-81
2023/02/15 05:16:21;;;;;;;6.05;5.38;;;;;;;-5.18;100.00;94032.16;2090406;28;20204;-82
2023/02/15 05:17:22;;;;;;;9.77;7.22;;;;;;;-5.23;100.00;94032.28;2098238;28;20574;-82
2023/02/15 05:18:23;;;;;;;8.02;6.15;;;;;;;-5.24;100.00;94023.69;2098144;28;20043;-80
2023/02/15 05:19:25;;;;;;;5.50;4.82;;;;;;;-5.18;100.00;94030.34;2087870;28;20025;-83
2023/02/15 05:20:27;;;;;;;4.70;4.30;;;;;;;-5.16;100.00;94027.44;2081751;28;20376;-81
2023/02/15 05:21:30;;;;;;;5.55;4.57;;;;;;;-5.18;100.00;94030.34;2089941;28;20037;-83
2023/02/15 05:22:31;;;;;;;12.82;10.60;;;;;;;-5.18;100.00;94030.34;2087155;28;20033;-83
2023/02/15 05:23:33;;;;;;;19.75;14.82;;;;;;;-5.15;100.00;94034.19;2073463;28;20116;-80
2023/02/15 05:28:35;;;;;;;10.80;9.70;;;;;;;-5.17;100.00;94034.50;2092210;28;20028;-79
2023/02/15 05:29:37;;;;;;;9.45;8.55;;;;;;;-5.19;100.00;94031.38;2080414;28;20108;-79
2023/02/15 05:30:39;;;;;;;7.97;5.80;;;;;;;-5.15;100.00;94037.56;2081319;28;20209;-83